Time;durP1;ratioP1;P1;durP2;ratioP2;P2;SDS_P1;SDS_P2;PMS_P1;PMS_P2;Temp;Humidity;BMP_temperature;BMP_pressure;BME280_temperature;BME280_humidity;BME280_pressure;Samples;Min_cycle;Max_cycle;Signal;HPM_P1;HPM_P2
2022/05/25 00:00:24;;;;;;;166.20;159.38;;;;;;;22.12;46.92;101081.88;5061490;28;20037;-75
2022/05/25 00:02:50;;;;;;;175.70;168.60;;;;;;;22.12;46.45;101083.81;5060847;28;20473;-76
2022/05/25 00:05:16;;;;;;;161.18;154.57;;;;;;;22.11;46.48;101084.97;5064579;28;20036;-76
2022/05/25 00:07:41;;;;;;;173.88;166.68;;;;;;;22.11;46.78;101084.97;5055297;28;20055;-76
2022/05/25 00:10:08;;;;;;;169.27;162.40;;;;;;;22.14;46.51;101092.59;5064176;28;20029;-76
2022/05/25 00:12:33;;;;;;;194.98;187.23;;;;;;;22.16;46.77;101098.59;5043930;28;20392;-76
2022/05/25 00:14:58;;;;;;;180.75;173.52;;;;;;;22.16;46.51;101102.16;5072425;28;20037;-75
2022/05/25 00:17:24;;;;;;;183.88;176.52;;;;;;;22.14;46.77;101104.41;5071306;28;20033;-75
2022/05/25 00:20:01;;;;;;;168.98;162.07;;;;;;;22.14;46.72;101104.41;5069898;28;20408;-75
2022/05/25 00:22:40;;;;;;;160.00;153.43;;;;;;;22.12;46.32;101103.91;5059877;28;20392;-76
2022/05/25 00:25:07;;;;;;;216.15;207.70;;;;;;;22.09;46.45;101104.53;5080256;28;20048;-75
2022/05/25 00:27:32;;;;;;;158.25;151.68;;;;;;;22.09;46.81;101098.22;5051391;28;20037;-75
2022/05/25 00:29:58;;;;;;;144.35;138.30;;;;;;;22.07;46.61;101104.03;5053416;28;20370;-75
2022/05/25 00:32:24;;;;;;;139.27;133.40;;;;;;;22.08;46.73;101105.66;5050827;28;20056;-75
2022/05/25 00:34:50;;;;;;;142.40;136.38;;;;;;;22.09;46.41;101107.28;5059796;28;20585;-75
2022/05/25 00:37:15;;;;;;;146.80;140.52;;;;;;;22.10;46.52;101119.91;5063206;28;20042;-75
2022/05/25 00:39:41;;;;;;;145.57;139.48;;;;;;;22.07;46.37;101112.28;5052507;28;20033;-75
2022/05/25 00:42:07;;;;;;;152.00;145.65;;;;;;;22.06;46.95;101113.41;5055813;28;20487;-76
2022/05/25 00:44:32;;;;;;;161.63;154.93;;;;;;;22.06;46.41;101107.09;5037224;28;20044;-76
2022/05/25 00:46:58;;;;;;;160.13;153.50;;;;;;;22.06;46.86;101109.84;5051386;28;20037;-76
2022/05/25 00:49:28;;;;;;;172.25;165.25;;;;;;;22.09;46.56;101109.22;5050992;28;20125;-76
2022/05/25 00:52:04;;;;;;;179.98;172.80;;;;;;;22.08;46.59;101115.84;5055249;28;20036;-76
2022/05/25 00:54:32;;;;;;;191.93;184.27;;;;;;;22.06;46.54;101120.84;5058734;28;20052;-76
2022/05/25 00:57:03;;;;;;;230.77;221.48;;;;;;;22.04;46.79;101123.91;5051122;28;20059;-76
2022/05/25 00:59:36;;;;;;;181.80;174.15;;;;;;;22.04;46.48;101113.72;5054660;28;20146;-76
2022/05/25 01:02:01;;;;;;;167.70;160.77;;;;;;;22.03;46.67;101123.09;5051637;28;20116;-79
2022/05/25 01:04:27;;;;;;;184.50;177.02;;;;;;;22.08;46.84;101126.88;5050973;28;20464;-76
2022/05/25 01:07:02;;;;;;;169.18;162.18;;;;;;;22.06;47.05;101116.16;5067575;28;20020;-76
2022/05/25 01:09:40;;;;;;;177.43;169.93;;;;;;;22.04;46.58;101124.72;5058793;28;20036;-76
2022/05/25 01:12:43;;;;;;;155.85;149.43;;;;;;;22.04;46.87;101118.41;5061876;28;20041;-76
2022/05/25 01:15:13;;;;;;;150.73;144.38;;;;;;;22.03;46.82;101116.78;5060216;28;20090;-76
2022/05/25 01:17:57;;;;;;;159.80;153.10;;;;;;;22.03;46.74;101120.34;5067532;28;20020;-76
2022/05/25 01:20:34;;;;;;;136.98;130.85;;;;;;;22.03;46.77;101128.59;5058726;28;20040;-76
2022/05/25 01:23:25;;;;;;;182.23;174.90;;;;;;;22.04;46.74;101126.66;5049857;28;20048;-76
2022/05/25 01:26:23;;;;;;;137.65;131.75;;;;;;;22.04;46.63;101130.22;5058833;28;20485;-76
2022/05/25 01:29:03;;;;;;;164.80;158.07;;;;;;;22.03;46.45;101127.78;5055021;28;20079;-76
2022/05/25 01:31:44;;;;;;;141.25;135.15;;;;;;;22.02;46.52;101129.72;5043411;28;20028;-76
2022/05/25 01:34:35;;;;;;;146.15;139.98;;;;;;;21.99;46.80;101127.56;5071442;28;20041;-76
2022/05/25 01:37:28;;;;;;;152.55;146.10;;;;;;;21.98;46.77;101138.91;5062957;28;20041;-76
2022/05/25 01:40:21;;;;;;;107.28;102.65;;;;;;;21.97;46.84;101131.75;5068393;28;20039;-76
2022/05/25 01:43:00;;;;;;;97.55;93.25;;;;;;;22.00;46.71;101131.97;5062011;28;20088;-76
2022/05/25 01:45:30;;;;;;;97.10;92.85;;;;;;;22.02;46.49;101126.97;5071943;28;20032;-76
2022/05/25 01:47:58;;;;;;;92.05;87.97;;;;;;;22.01;46.66;101128.09;5065854;28;20037;-76
2022/05/25 01:50:29;;;;;;;111.18;106.35;;;;;;;22.00;46.46;101136.66;5053896;28;20056;-76
2022/05/25 01:52:59;;;;;;;108.65;103.95;;;;;;;21.97;46.93;101129.84;5054278;28;20032;-76
2022/05/25 01:55:29;;;;;;;113.95;108.95;;;;;;;21.98;46.99;101136.16;5049221;28;20392;-77
2022/05/25 01:58:09;;;;;;;117.20;112.20;;;;;;;22.00;47.93;101134.72;5038916;28;20094;-76
2022/05/25 02:00:47;;;;;;;129.23;123.13;;;;;;;22.01;47.49;101135.53;5072878;28;20055;-76
2022/05/25 02:06:16;;;;;;;141.18;135.23;;;;;;;21.96;47.31;101133.72;5062455;28;20086;-76
2022/05/25 02:08:56;;;;;;;149.32;143.02;;;;;;;21.97;47.20;101135.34;5067882;28;20052;-76
2022/05/25 02:11:31;;;;;;;150.13;143.93;;;;;;;21.97;46.87;101137.25;5062332;28;20040;-76
2022/05/25 02:14:18;;;;;;;152.95;146.65;;;;;;;21.94;46.81;101135.94;5054318;28;20461;-75
2022/05/25 02:17:02;;;;;;;152.95;146.55;;;;;;;21.93;47.13;101139.84;5060367;28;20040;-76
2022/05/25 02:19:39;;;;;;;152.55;145.93;;;;;;;22.00;46.92;101131.16;5055363;28;20365;-76
2022/05/25 02:22:12;;;;;;;182.30;174.98;;;;;;;21.99;46.59;101133.09;5068145;28;20043;-76
2022/05/25 02:24:49;;;;;;;183.32;175.85;;;;;;;21.97;46.82;101135.34;5054611;28;20094;-76
2022/05/25 02:27:25;;;;;;;180.27;173.02;;;;;;;21.99;46.52;101146.03;5070014;28;20033;-76
2022/05/25 02:29:56;;;;;;;187.38;179.85;;;;;;;21.96;46.55;101146.66;5055221;28;20033;-78
2022/05/25 02:32:43;;;;;;;177.85;170.65;;;;;;;21.99;46.34;101157.84;5055986;28;20040;-76
2022/05/25 02:35:10;;;;;;;171.10;164.15;;;;;;;22.00;46.40;101162.22;5054810;28;20392;-76
2022/05/25 02:37:36;;;;;;;166.75;159.80;;;;;;;21.97;46.68;101167.53;5072064;28;20050;-76
2022/05/25 02:40:06;;;;;;;172.40;165.40;;;;;;;21.98;46.72;101164.47;5062092;28;20560;-76
2022/05/25 02:42:32;;;;;;;165.95;158.75;;;;;;;21.97;46.11;101157.34;5051087;28;20032;-76
2022/05/25 02:44:57;;;;;;;176.20;169.10;;;;;;;21.96;46.43;101155.72;5073233;28;20040;-76
2022/05/25 02:47:23;;;;;;;177.50;170.27;;;;;;;21.96;46.59;101166.72;5067783;28;20033;-76
2022/05/25 02:49:48;;;;;;;183.43;176.13;;;;;;;21.98;46.55;101153.47;5052115;28;20040;-76
2022/05/25 02:52:14;;;;;;;190.70;183.10;;;;;;;21.98;46.29;101155.41;5055049;28;20028;-76
2022/05/25 02:54:39;;;;;;;183.68;176.07;;;;;;;21.98;46.10;101164.47;5076826;28;20082;-76
2022/05/25 02:57:07;;;;;;;170.35;163.40;;;;;;;21.95;46.21;101167.84;5071919;28;20075;-76
2022/05/25 02:59:32;;;;;;;175.18;168.10;;;;;;;21.96;46.31;101168.66;5046091;28;20043;-76
2022/05/25 03:01:58;;;;;;;177.98;170.70;;;;;;;21.94;46.58;101163.44;5072625;28;20029;-77
2022/05/25 03:04:24;;;;;;;183.60;176.18;;;;;;;21.92;46.42;101165.69;5055705;28;20113;-76
2022/05/25 03:06:49;;;;;;;178.18;171.02;;;;;;;21.94;46.33;101170.91;5059435;28;20065;-76
2022/05/25 03:09:15;;;;;;;169.45;162.35;;;;;;;21.95;46.23;101180.78;5062844;28;20422;-76
2022/05/25 03:11:41;;;;;;;179.77;172.48;;;;;;;21.92;46.18;101173.13;5035533;28;20041;-76
2022/05/25 03:14:06;;;;;;;166.43;159.70;;;;;;;21.92;46.42;101176.69;5069810;28;20032;-76
2022/05/25 03:16:32;;;;;;;171.95;164.88;;;;;;;21.94;46.06;101173.66;5069392;28;20126;-76
2022/05/25 03:18:58;;;;;;;172.10;165.05;;;;;;;21.93;46.12;101183.84;5058465;28;20060;-76
2022/05/25 03:21:25;;;;;;;168.27;161.40;;;;;;;21.93;46.14;101183.03;5060051;28;20036;-76
2022/05/25 03:23:51;;;;;;;164.38;157.60;;;;;;;21.92;45.75;101178.63;5050845;28;20484;-76
2022/05/25 03:26:16;;;;;;;174.05;167.05;;;;;;;21.93;46.42;101183.84;5063387;28;20124;-76
2022/05/25 03:28:42;;;;;;;165.20;158.40;;;;;;;21.91;46.09;101185.28;5052415;28;20470;-76
2022/05/25 03:31:07;;;;;;;160.13;153.50;;;;;;;21.92;45.77;101186.88;5053195;28;20060;-76
2022/05/25 03:33:33;;;;;;;148.95;142.63;;;;;;;21.90;45.93;101187.22;5054333;28;20070;-76
2022/05/25 03:35:59;;;;;;;147.20;141.02;;;;;;;21.90;46.09;101195.47;5053729;28;20028;-76
2022/05/25 03:38:26;;;;;;;141.05;135.15;;;;;;;21.90;46.14;101195.47;5037642;28;20094;-76
2022/05/25 03:40:52;;;;;;;167.75;160.90;;;;;;;21.90;46.05;101198.22;5053995;28;20544;-76
2022/05/25 03:43:18;;;;;;;151.43;145.13;;;;;;;21.89;45.74;101201.25;5059760;28;20107;-77
2022/05/25 03:45:47;;;;;;;151.13;144.75;;;;;;;21.90;46.19;101202.88;5063108;28;20146;-76
2022/05/25 03:48:14;;;;;;;160.48;153.88;;;;;;;21.89;45.83;101199.31;5077941;28;20594;-76
2022/05/25 03:50:40;;;;;;;167.25;160.18;;;;;;;21.87;46.32;101203.50;5071582;28;20089;-76
2022/05/25 03:53:08;;;;;;;171.23;163.82;;;;;;;21.87;45.73;101207.06;5062009;28;20040;-76
2022/05/25 03:55:35;;;;;;;168.27;161.38;;;;;;;21.87;45.70;101201.56;5060499;28;20136;-79
2022/05/25 03:58:04;;;;;;;145.95;139.82;;;;;;;21.88;46.17;101207.91;5052442;28;20029;-76
2022/05/25 04:00:30;;;;;;;154.43;148.05;;;;;;;21.86;46.15;101205.44;5052622;28;20063;-76
2022/05/25 04:02:59;;;;;;;174.27;167.27;;;;;;;21.86;46.03;101221.13;5069101;28;20040;-76
2022/05/25 04:05:28;;;;;;;177.70;170.52;;;;;;;21.86;46.15;101212.88;5061114;28;20035;-76
2022/05/25 04:07:58;;;;;;;175.98;168.90;;;;;;;21.86;46.12;101213.69;5053475;28;20407;-76
2022/05/25 04:10:25;;;;;;;193.15;185.55;;;;;;;21.86;45.74;101219.19;5070718;28;20491;-76
2022/05/25 04:12:51;;;;;;;180.35;172.75;;;;;;;21.87;45.99;101223.56;5070681;28;20107;-76
2022/05/25 04:15:23;;;;;;;180.55;173.27;;;;;;;21.87;45.90;101226.31;5059674;28;20477;-76
2022/05/25 04:17:49;;;;;;;178.85;171.63;;;;;;;21.87;46.09;101222.75;5052054;28;20029;-75
2022/05/25 04:20:16;;;;;;;186.77;179.35;;;;;;;21.86;45.93;101221.94;5034298;28;20035;-76
2022/05/25 04:22:42;;;;;;;168.75;161.88;;;;;;;21.88;46.19;101227.16;5051310;28;20087;-76
2022/05/25 04:25:10;;;;;;;160.63;154.02;;;;;;;21.87;46.07;101223.56;5055680;28;20049;-76
2022/05/25 04:27:37;;;;;;;;;;;;;;;21.87;46.10;101218.06;5054867;28;20417;-79
2022/05/25 04:30:04;;;;;;;145.68;139.55;;;;;;;21.88;46.15;101216.16;5033763;28;19919;-76
2022/05/25 04:32:29;;;;;;;152.00;145.75;;;;;;;21.90;45.80;101227.63;5051797;28;20029;-76
2022/05/25 04:34:57;;;;;;;168.40;161.50;;;;;;;21.89;46.21;101224.06;5053517;28;20124;-76
2022/05/25 04:40:07;;;;;;;179.70;172.18;;;;;;;21.89;46.12;101226.81;5051502;28;20405;-76
2022/05/25 04:42:32;;;;;;;120.18;115.07;;;;;;;21.84;45.91;101224.19;5067483;28;20047;-76
2022/05/25 04:45:03;;;;;;;122.63;117.43;;;;;;;21.85;46.20;101222.25;5052966;28;20383;-75
2022/05/25 04:47:29;;;;;;;117.78;112.78;;;;;;;21.88;46.19;101221.66;5055483;28;20028;-76
2022/05/25 04:49:54;;;;;;;103.95;99.45;;;;;;;21.82;45.84;101220.91;5057006;28;20117;-76
2022/05/25 04:52:20;;;;;;;102.80;98.30;;;;;;;21.87;45.82;101228.25;5057685;28;20120;-76
2022/05/25 04:54:45;;;;;;;101.20;96.72;;;;;;;21.86;46.03;101227.44;5061082;28;20067;-76
2022/05/25 04:57:19;;;;;;;100.93;96.53;;;;;;;21.85;45.78;101231.31;5060674;28;20725;-76
2022/05/25 04:59:53;;;;;;;100.93;96.50;;;;;;;21.89;45.82;101235.06;5049982;28;20457;-76
2022/05/25 05:02:19;;;;;;;104.50;99.97;;;;;;;21.89;45.61;101237.81;5063887;28;20056;-76
2022/05/25 05:04:45;;;;;;;107.82;103.13;;;;;;;21.91;45.92;101232.84;5054926;28;20028;-76
2022/05/25 05:07:12;;;;;;;107.18;102.55;;;;;;;21.89;46.02;101235.06;5057108;28;20504;-76
2022/05/25 05:09:39;;;;;;;111.03;106.25;;;;;;;21.87;45.81;101237.31;5055419;28;20043;-75
2022/05/25 05:12:05;;;;;;;105.22;100.63;;;;;;;21.90;45.86;101233.13;5070068;28;20033;-76
2022/05/25 05:14:31;;;;;;;102.72;98.30;;;;;;;21.89;46.18;101232.31;5070170;28;20130;-76
2022/05/25 05:16:57;;;;;;;108.13;103.50;;;;;;;21.89;45.64;101228.75;5038424;28;20434;-76
2022/05/25 05:19:24;;;;;;;109.13;104.40;;;;;;;21.91;45.59;101232.84;5073867;28;20109;-76
2022/05/25 05:21:51;;;;;;;114.90;109.95;;;;;;;21.93;45.85;101232.53;5083111;28;20032;-76
2022/05/25 05:24:16;;;;;;;117.03;112.03;;;;;;;21.92;46.05;101230.91;5063816;28;20052;-76
2022/05/25 05:26:41;;;;;;;121.47;116.28;;;;;;;21.91;45.73;101230.09;5073000;28;20029;-77
2022/05/25 05:29:07;;;;;;;121.57;116.43;;;;;;;21.92;45.58;101226.19;5053295;28;20115;-76
2022/05/25 05:31:33;;;;;;;127.80;122.28;;;;;;;21.94;45.74;101225.91;5041921;28;20056;-76
2022/05/25 05:33:59;;;;;;;134.00;128.30;;;;;;;21.90;45.93;101222.13;5073908;28;20480;-76
2022/05/25 05:36:50;;;;;;;134.00;128.23;;;;;;;21.90;45.93;101222.97;5049007;28;20033;-75
2022/05/25 05:39:18;;;;;;;128.65;123.20;;;;;;;21.88;46.01;101227.16;5039830;28;20124;-76
2022/05/25 05:41:59;;;;;;;138.88;132.77;;;;;;;21.90;45.69;101224.88;5065690;28;20473;-76
2022/05/25 05:44:30;;;;;;;135.52;129.80;;;;;;;21.92;46.00;101230.91;5073342;28;20033;-76
2022/05/25 05:46:59;;;;;;;138.57;132.57;;;;;;;21.90;45.96;101233.13;5074520;28;20037;-76
2022/05/25 05:49:25;;;;;;;134.82;129.02;;;;;;;21.89;45.76;101229.56;5064583;28;20032;-76
2022/05/25 05:51:50;;;;;;;138.23;132.35;;;;;;;21.89;46.07;101229.56;5059395;28;20397;-76
2022/05/25 05:54:17;;;;;;;137.90;132.07;;;;;;;21.89;46.02;101232.31;5054433;28;20043;-76
2022/05/25 05:56:43;;;;;;;140.90;134.95;;;;;;;21.89;46.20;101229.56;5056494;28;20120;-79
2022/05/25 05:59:09;;;;;;;143.55;137.55;;;;;;;21.91;46.01;101243.84;5083424;28;20523;-76
2022/05/25 06:01:34;;;;;;;156.75;149.52;;;;;;;21.92;46.12;101248.22;5053655;28;20398;-75
2022/05/25 06:04:00;;;;;;;140.07;133.88;;;;;;;21.87;46.20;101245.56;5027453;28;20038;-74
2022/05/25 06:06:25;;;;;;;141.25;135.18;;;;;;;21.93;46.37;101244.34;5013385;28;20058;-73
2022/05/25 06:08:51;;;;;;;141.38;135.43;;;;;;;21.90;46.41;101252.38;5030419;28;20077;-75
2022/05/25 06:11:18;;;;;;;140.02;134.07;;;;;;;21.89;46.99;101254.31;5017496;28;20037;-74
2022/05/25 06:13:44;;;;;;;141.73;135.77;;;;;;;21.93;46.72;101262.78;5031131;28;20109;-80
2022/05/25 06:21:38;;;;;;;153.23;146.63;;;;;;;21.94;47.12;101272.66;5029810;28;20508;-73
2022/05/25 06:24:04;;;;;;;160.50;153.32;;;;;;;21.94;46.62;101276.22;5046807;28;20049;-78
2022/05/25 06:26:30;;;;;;;167.07;160.10;;;;;;;21.92;47.16;101270.22;5032632;28;20033;-76
2022/05/25 06:29:02;;;;;;;172.52;165.30;;;;;;;21.89;47.28;101273.56;5036877;28;20082;-79
2022/05/25 06:31:29;;;;;;;211.05;202.45;;;;;;;21.88;47.39;101273.91;5036098;28;20536;-77
2022/05/25 06:33:55;;;;;;;204.52;196.07;;;;;;;21.90;46.84;101288.13;5032373;28;20033;-76
2022/05/25 06:36:30;;;;;;;196.82;188.48;;;;;;;21.87;46.90;101286.81;5020144;28;20061;-77
2022/05/25 06:38:56;;;;;;;195.45;187.23;;;;;;;21.87;46.71;101286.00;5033205;28;20033;-77
2022/05/25 06:41:22;;;;;;;185.15;177.38;;;;;;;21.88;46.92;101290.41;5035964;28;20056;-76
2022/05/25 06:43:48;;;;;;;177.35;169.35;;;;;;;21.86;46.85;101292.63;5031440;28;20042;-77
2022/05/25 06:46:18;;;;;;;181.95;174.10;;;;;;;21.86;46.74;101295.38;5031025;28;20120;-76
2022/05/25 06:48:47;;;;;;;169.90;162.35;;;;;;;21.85;46.60;101302.81;5020175;28;20466;-77
2022/05/25 06:51:19;;;;;;;167.15;159.95;;;;;;;21.85;46.47;101299.25;5033840;28;20044;-77
2022/05/25 06:53:44;;;;;;;148.73;142.02;;;;;;;21.84;46.52;101303.94;5014967;28;20034;-77
2022/05/25 06:56:10;;;;;;;123.82;118.22;;;;;;;21.86;46.20;101298.13;5058576;28;20029;-77
2022/05/25 06:58:35;;;;;;;102.97;98.28;;;;;;;21.80;46.68;101303.75;5015358;28;20109;-76
2022/05/25 07:01:02;;;;;;;94.20;89.50;;;;;;;21.82;46.43;101306.16;5032164;28;20038;-77
2022/05/25 07:03:28;;;;;;;85.88;81.68;;;;;;;21.86;46.42;101304.44;5041593;28;20026;-77
2022/05/25 07:05:53;;;;;;;82.72;78.63;;;;;;;21.85;46.66;101310.25;5020984;28;20539;-78
2022/05/25 07:08:19;;;;;;;76.43;72.45;;;;;;;21.86;46.52;101318.19;5037712;28;20065;-77
2022/05/25 07:10:46;;;;;;;70.70;67.28;;;;;;;21.85;46.46;101313.84;5031512;28;20044;-77
2022/05/25 07:13:17;;;;;;;64.93;61.40;;;;;;;21.87;46.08;101321.75;5020699;28;20095;-77
2022/05/25 07:15:43;;;;;;;63.08;59.58;;;;;;;21.88;45.93;101317.91;5031149;28;20075;-77
2022/05/25 07:18:09;;;;;;;59.28;56.17;;;;;;;21.85;46.37;101311.09;5020744;28;20041;-77
2022/05/25 07:20:34;;;;;;;59.17;56.08;;;;;;;21.87;45.99;101322.56;5014387;28;20049;-77
2022/05/25 07:23:00;;;;;;;60.08;56.38;;;;;;;21.89;46.26;101323.09;5014088;28;20503;-78
2022/05/25 07:25:26;;;;;;;55.72;52.65;;;;;;;21.89;45.96;101325.84;5014466;28;20052;-76
2022/05/25 07:27:51;;;;;;;55.83;52.33;;;;;;;21.85;46.31;101333.09;5027863;28;20496;-77
2022/05/25 07:30:17;;;;;;;53.70;50.60;;;;;;;21.88;46.39;101331.66;5029736;28;20034;-78
2022/05/25 07:32:43;;;;;;;53.78;50.78;;;;;;;21.92;46.32;101329.91;5031439;28;20040;-75
2022/05/25 07:35:11;;;;;;;53.47;50.40;;;;;;;21.90;46.32;101338.47;5031262;28;20379;-77
2022/05/25 07:37:40;;;;;;;54.72;51.47;;;;;;;21.88;46.06;101332.47;5019758;28;20481;-77
2022/05/25 07:40:05;;;;;;;;;;;;;;;21.87;46.25;101341.81;5032066;28;20037;-77
2022/05/25 07:42:31;;;;;;;50.92;48.03;;;;;;;21.88;46.33;101342.66;5032454;28;19962;-77
2022/05/25 07:45:00;;;;;;;54.17;50.90;;;;;;;21.86;46.25;101334.69;5024363;28;20036;-77
2022/05/25 07:47:28;;;;;;;50.40;47.28;;;;;;;21.88;46.05;101335.22;5023557;28;20045;-77
2022/05/25 07:49:54;;;;;;;49.45;46.60;;;;;;;21.84;46.54;101336.94;5023835;28;20091;-77
2022/05/25 07:52:22;;;;;;;50.78;47.83;;;;;;;21.87;46.38;101341.81;5026540;28;20033;-77
2022/05/25 07:54:47;;;;;;;48.85;45.95;;;;;;;21.87;46.60;101341.81;5023679;28;20049;-77
2022/05/25 07:57:14;;;;;;;47.78;44.97;;;;;;;21.86;46.26;101342.94;5019468;28;20425;-77
2022/05/25 07:59:40;;;;;;;47.20;44.30;;;;;;;21.87;46.40;101335.50;5013872;28;20030;-77
2022/05/25 08:07:50;;;;;;;46.13;43.63;;;;;;;21.88;46.59;101345.41;5029714;28;20053;-77
2022/05/25 08:10:18;;;;;;;45.60;42.85;;;;;;;21.87;46.36;101343.75;5030001;28;20037;-77
2022/05/25 08:12:45;;;;;;;46.05;43.45;;;;;;;21.86;46.22;101336.63;5014548;28;20033;-78
2022/05/25 08:15:13;;;;;;;46.40;43.90;;;;;;;21.87;46.75;101344.56;5030132;28;20048;-77
2022/05/25 08:17:39;;;;;;;44.60;42.10;;;;;;;21.87;46.84;101339.06;5031705;28;20033;-77
2022/05/25 08:20:05;;;;;;;43.97;41.55;;;;;;;21.87;46.75;101347.31;5029948;28;20044;-77
2022/05/25 08:22:31;;;;;;;45.22;42.78;;;;;;;21.91;46.78;101336.53;5012516;28;20099;-77
2022/05/25 08:24:57;;;;;;;44.50;41.85;;;;;;;21.88;46.52;101342.66;5010312;28;20534;-77
2022/05/25 08:27:22;;;;;;;43.30;41.00;;;;;;;21.86;46.27;101337.44;5025010;28;20034;-78
2022/05/25 08:29:48;;;;;;;44.92;42.42;;;;;;;21.86;46.32;101331.94;5030637;28;20054;-77
2022/05/25 08:32:14;;;;;;;43.22;40.72;;;;;;;21.89;46.37;101341.53;5020400;28;20030;-77
2022/05/25 08:34:40;;;;;;;41.80;39.50;;;;;;;21.86;46.96;101329.19;5031465;28;20063;-77
2022/05/25 08:37:06;;;;;;;42.42;40.13;;;;;;;21.86;46.47;101331.94;5011695;28;20482;-76
2022/05/25 08:39:31;;;;;;;42.33;39.85;;;;;;;21.89;46.78;101338.78;5017653;28;20051;-77
2022/05/25 08:42:02;;;;;;;42.95;40.63;;;;;;;21.94;46.66;101335.94;5030067;28;20409;-77
2022/05/25 08:44:28;;;;;;;41.05;38.72;;;;;;;21.95;46.47;101334.81;5031497;28;20091;-80
2022/05/25 08:46:57;;;;;;;40.85;38.75;;;;;;;21.94;46.38;101328.47;5030345;28;20458;-80
2022/05/25 08:49:26;;;;;;;40.92;38.63;;;;;;;21.93;46.88;101326.06;5041645;28;20123;-79
2022/05/25 08:51:57;;;;;;;41.38;38.75;;;;;;;21.94;46.63;101327.69;5015024;28;20030;-81
2022/05/25 08:54:25;;;;;;;40.28;38.00;;;;;;;21.99;46.65;101330.31;5011692;28;20045;-80
2022/05/25 08:57:04;;;;;;;39.83;37.58;;;;;;;21.95;46.69;101326.56;5039993;28;20120;-81
2022/05/25 08:59:41;;;;;;;41.40;39.03;;;;;;;21.97;46.20;101329.81;5019022;28;20063;-80
2022/05/25 09:02:28;;;;;;;41.50;39.20;;;;;;;21.96;46.65;101326.25;5018968;28;20030;-80
2022/05/25 09:05:11;;;;;;;40.78;38.47;;;;;;;21.98;46.40;101329.50;5012694;28;20046;-80
2022/05/25 09:08:00;;;;;;;39.88;37.65;;;;;;;21.93;46.42;101334.31;5017098;28;20088;-79
2022/05/25 09:10:30;;;;;;;40.85;38.47;;;;;;;21.93;46.39;101339.81;5039327;28;20086;-82
2022/05/25 09:13:12;;;;;;;38.70;36.47;;;;;;;21.95;46.37;101341.13;5019777;28;20032;-79
2022/05/25 09:18:37;;;;;;;38.53;36.53;;;;;;;21.98;45.97;101337.75;5035652;28;20112;-80
2022/05/25 09:21:05;;;;;;;38.67;36.65;;;;;;;22.03;46.05;101339.59;5027935;28;20437;-79
2022/05/25 09:23:31;;;;;;;38.80;36.38;;;;;;;22.04;46.49;101338.47;5020883;28;20050;-79
2022/05/25 09:25:58;;;;;;;39.05;36.95;;;;;;;22.06;46.17;101336.25;5016759;28;20049;-79
2022/05/25 09:28:32;;;;;;;40.20;38.20;;;;;;;22.08;46.34;101339.50;5022496;28;20371;-80
2022/05/25 09:31:02;;;;;;;37.88;35.80;;;;;;;22.09;46.42;101346.63;5022701;28;20293;-80
2022/05/25 09:33:44;;;;;;;39.38;37.28;;;;;;;22.08;45.97;101342.25;5030897;28;20497;-79
2022/05/25 09:36:25;;;;;;;38.30;36.30;;;;;;;22.10;46.25;101341.94;5021948;28;20038;-82
2022/05/25 09:39:14;;;;;;;38.40;36.40;;;;;;;22.06;46.32;101344.50;5017793;28;20030;-82
2022/05/25 09:41:45;;;;;;;39.00;36.90;;;;;;;22.08;46.74;101335.94;5014636;28;20030;-81
2022/05/25 09:44:16;;;;;;;38.13;36.17;;;;;;;22.08;46.39;101328.50;5030855;28;20401;-80
2022/05/25 09:46:54;;;;;;;37.70;35.80;;;;;;;22.11;46.25;101344.38;5062224;28;20127;-81
2022/05/25 09:49:31;;;;;;;39.22;37.00;;;;;;;22.09;46.78;101337.56;5015760;28;20038;-79
2022/05/25 09:51:59;;;;;;;37.92;36.03;;;;;;;22.06;46.54;101338.19;5028874;28;20077;-79
2022/05/25 09:54:42;;;;;;;135.80;61.90;;;;;;;22.08;48.30;101335.94;5015131;28;20643;-79
2022/05/25 09:57:21;;;;;;;78.57;51.17;;;;;;;22.10;50.56;101341.94;5024997;28;20041;-76
2022/05/25 09:59:56;;;;;;;58.35;47.25;;;;;;;22.09;49.50;101356.81;5030617;28;20389;-75
2022/05/25 10:02:28;;;;;;;50.63;45.28;;;;;;;22.10;48.86;101347.44;5032425;28;20034;-76
2022/05/25 10:04:56;;;;;;;55.78;45.33;;;;;;;22.13;48.30;101353.16;5034003;28;20037;-76
2022/05/25 10:07:39;;;;;;;49.05;41.53;;;;;;;22.17;48.50;101353.34;5025398;28;20429;-76
2022/05/25 10:10:10;;;;;;;57.15;40.83;;;;;;;22.21;48.64;101354.41;5028363;28;20036;-76
2022/05/25 10:12:38;;;;;;;43.78;39.30;;;;;;;22.22;48.39;101350.53;5019446;28;20037;-76
2022/05/25 10:15:08;;;;;;;42.10;37.95;;;;;;;22.25;47.97;101350.75;5013861;28;20032;-75
2022/05/25 10:17:40;;;;;;;43.17;39.30;;;;;;;22.23;47.94;101365.94;5016862;28;20438;-75
2022/05/25 10:20:30;;;;;;;44.42;40.03;;;;;;;22.23;47.74;101350.22;5031423;28;20096;-77
2022/05/25 10:23:09;;;;;;;41.03;37.33;;;;;;;22.21;47.79;101352.47;5032141;28;20030;-76
2022/05/25 10:25:52;;;;;;;42.95;39.35;;;;;;;22.23;47.88;101344.72;5032265;28;20068;-76
2022/05/25 10:28:36;;;;;;;41.30;38.00;;;;;;;22.22;47.29;101343.06;5024870;28;20025;-76
2022/05/25 10:37:06;;;;;;;38.58;35.90;;;;;;;22.25;47.40;101344.41;4989554;28;20042;-77
2022/05/25 10:39:54;;;;;;;38.60;35.58;;;;;;;22.22;47.29;101350.53;4978211;28;20038;-77
2022/05/25 10:42:39;;;;;;;38.95;36.35;;;;;;;22.23;46.90;101347.47;5016472;28;20045;-77
2022/05/25 10:45:10;;;;;;;37.53;35.17;;;;;;;22.21;47.15;101349.72;5045992;28;20445;-77
2022/05/25 10:47:57;;;;;;;37.80;35.38;;;;;;;22.23;47.38;101338.41;5025929;28;20028;-77
2022/05/25 10:50:27;;;;;;;38.15;35.60;;;;;;;22.24;46.79;101334.53;5020618;28;20047;-77
2022/05/25 10:53:06;;;;;;;38.17;36.03;;;;;;;22.27;46.83;101344.09;5029883;28;20373;-78
2022/05/25 10:55:57;;;;;;;37.10;34.83;;;;;;;22.28;47.48;101343.00;5012540;28;20120;-77
2022/05/25 10:58:37;;;;;;;37.42;35.08;;;;;;;22.24;46.62;101326.28;5006530;28;20048;-77
2022/05/25 11:01:55;;;;;;;37.15;35.00;;;;;;;22.25;46.74;101333.38;5045074;28;20499;-77
2022/05/25 11:04:41;;;;;;;37.35;35.25;;;;;;;22.23;46.98;101338.41;4994552;28;20125;-77
2022/05/25 11:07:12;;;;;;;35.38;33.42;;;;;;;22.23;46.51;101333.72;5031622;28;20037;-77
2022/05/25 11:09:56;;;;;;;35.70;33.60;;;;;;;22.25;46.72;101344.41;5027834;28;20036;-77
2022/05/25 11:12:24;;;;;;;38.33;35.92;;;;;;;22.21;46.74;101349.72;5035236;28;20036;-77
2022/05/25 11:15:01;;;;;;;38.25;35.75;;;;;;;22.20;46.28;101342.59;5015250;28;20485;-77
2022/05/25 11:17:40;;;;;;;35.88;33.92;;;;;;;22.21;46.25;101341.47;5028486;28;20032;-77
2022/05/25 11:20:40;;;;;;;35.20;33.25;;;;;;;22.21;46.67;101349.72;5030252;28;20036;-77
2022/05/25 11:23:21;;;;;;;34.35;32.45;;;;;;;22.22;46.13;101345.03;5035172;28;20021;-76
2022/05/25 11:26:15;;;;;;;36.63;34.53;;;;;;;22.23;46.19;101341.97;5025742;28;20096;-77
2022/05/25 11:29:34;;;;;;;34.53;32.75;;;;;;;22.25;45.87;101344.41;5032723;28;20018;-76
2022/05/25 11:32:21;;;;;;;34.15;32.45;;;;;;;22.23;46.24;101336.47;5003357;28;20129;-76
2022/05/25 11:35:14;;;;;;;35.70;33.72;;;;;;;22.22;45.23;101336.75;5022811;28;20033;-76
2022/05/25 11:38:07;;;;;;;34.53;32.50;;;;;;;22.21;45.69;101335.16;5031851;28;20048;-77
2022/05/25 11:41:13;;;;;;;35.22;33.40;;;;;;;22.25;45.71;101330.63;5021198;28;20072;-77
2022/05/25 11:44:08;;;;;;;34.95;33.15;;;;;;;22.21;45.59;101335.97;4993259;28;20041;-79
2022/05/25 11:46:47;;;;;;;34.17;32.20;;;;;;;22.23;45.67;101325.47;5007558;28;20048;-76